sensor_id;sensor_type;location;lat;lon;timestamp;P1;durP1;ratioP1;P2;durP2;ratioP2
71806;SDS011;59655;42.590;23.364;2022-10-19T00:00:24;5.07;;;2.20;;
71806;SDS011;59655;42.590;23.364;2022-10-19T00:02:49;6.47;;;2.10;;
71806;SDS011;59655;42.590;23.364;2022-10-19T00:05:14;4.28;;;1.60;;
71806;SDS011;59655;42.590;23.364;2022-10-19T00:07:40;4.55;;;1.90;;
71806;SDS011;59655;42.590;23.364;2022-10-19T00:10:05;4.55;;;2.08;;
71806;SDS011;59655;42.590;23.364;2022-10-19T00:12:31;5.18;;;2.10;;
71806;SDS011;59655;42.590;23.364;2022-10-19T00:14:56;4.45;;;2.00;;
71806;SDS011;59655;42.590;23.364;2022-10-19T00:17:22;7.95;;;2.67;;
71806;SDS011;59655;42.590;23.364;2022-10-19T00:19:47;12.43;;;5.38;;
71806;SDS011;59655;42.590;23.364;2022-10-19T00:22:12;19.52;;;6.70;;
71806;SDS011;59655;42.590;23.364;2022-10-19T00:24:38;16.33;;;5.90;;
71806;SDS011;59655;42.590;23.364;2022-10-19T00:27:04;10.25;;;3.47;;
71806;SDS011;59655;42.590;23.364;2022-10-19T00:29:30;5.40;;;2.03;;
71806;SDS011;59655;42.590;23.364;2022-10-19T00:31:56;6.18;;;2.90;;
71806;SDS011;59655;42.590;23.364;2022-10-19T00:34:21;5.68;;;3.03;;
71806;SDS011;59655;42.590;23.364;2022-10-19T00:36:47;5.45;;;2.15;;
71806;SDS011;59655;42.590;23.364;2022-10-19T00:39:13;6.22;;;1.85;;
71806;SDS011;59655;42.590;23.364;2022-10-19T00:41:41;4.10;;;2.15;;
71806;SDS011;59655;42.590;23.364;2022-10-19T00:51:33;6.45;;;2.38;;
71806;SDS011;59655;42.590;23.364;2022-10-19T00:54:03;5.68;;;2.20;;
71806;SDS011;59655;42.590;23.364;2022-10-19T00:56:30;5.88;;;2.13;;
71806;SDS011;59655;42.590;23.364;2022-10-19T00:58:56;5.45;;;2.20;;
71806;SDS011;59655;42.590;23.364;2022-10-19T01:01:22;6.88;;;2.20;;
71806;SDS011;59655;42.590;23.364;2022-10-19T01:03:49;7.20;;;2.33;;
71806;SDS011;59655;42.590;23.364;2022-10-19T01:06:15;5.43;;;2.42;;
71806;SDS011;59655;42.590;23.364;2022-10-19T01:08:42;6.55;;;2.58;;
71806;SDS011;59655;42.590;23.364;2022-10-19T01:11:17;5.78;;;2.10;;
71806;SDS011;59655;42.590;23.364;2022-10-19T01:13:52;5.00;;;2.28;;
71806;SDS011;59655;42.590;23.364;2022-10-19T01:24:49;7.25;;;2.45;;
71806;SDS011;59655;42.590;23.364;2022-10-19T01:27:34;5.15;;;2.60;;
71806;SDS011;59655;42.590;23.364;2022-10-19T01:30:05;5.20;;;2.47;;
71806;SDS011;59655;42.590;23.364;2022-10-19T01:38:21;4.30;;;2.60;;
71806;SDS011;59655;42.590;23.364;2022-10-19T01:41:04;6.40;;;2.17;;
71806;SDS011;59655;42.590;23.364;2022-10-19T01:46:08;4.10;;;2.10;;
71806;SDS011;59655;42.590;23.364;2022-10-19T01:48:54;4.78;;;2.40;;
71806;SDS011;59655;42.590;23.364;2022-10-19T01:51:27;5.85;;;2.60;;
71806;SDS011;59655;42.590;23.364;2022-10-19T01:53:57;4.25;;;2.40;;
71806;SDS011;59655;42.590;23.364;2022-10-19T01:56:33;4.65;;;2.33;;
71806;SDS011;59655;42.590;23.364;2022-10-19T01:59:02;4.45;;;2.10;;
71806;SDS011;59655;42.590;23.364;2022-10-19T02:01:31;4.18;;;2.35;;
71806;SDS011;59655;42.590;23.364;2022-10-19T02:03:59;4.45;;;2.15;;
71806;SDS011;59655;42.590;23.364;2022-10-19T02:06:26;4.80;;;2.00;;
71806;SDS011;59655;42.590;23.364;2022-10-19T02:08:52;4.80;;;2.50;;
71806;SDS011;59655;42.590;23.364;2022-10-19T02:11:18;4.97;;;2.50;;
71806;SDS011;59655;42.590;23.364;2022-10-19T02:13:47;5.70;;;2.35;;
71806;SDS011;59655;42.590;23.364;2022-10-19T02:16:18;7.03;;;2.70;;
71806;SDS011;59655;42.590;23.364;2022-10-19T02:18:50;6.80;;;2.58;;
71806;SDS011;59655;42.590;23.364;2022-10-19T02:21:18;3.53;;;1.88;;
71806;SDS011;59655;42.590;23.364;2022-10-19T02:23:43;5.38;;;2.33;;
71806;SDS011;59655;42.590;23.364;2022-10-19T02:26:09;4.40;;;2.50;;
71806;SDS011;59655;42.590;23.364;2022-10-19T02:28:35;7.80;;;2.40;;
71806;SDS011;59655;42.590;23.364;2022-10-19T02:31:01;5.40;;;2.63;;
71806;SDS011;59655;42.590;23.364;2022-10-19T02:33:27;5.75;;;2.72;;
71806;SDS011;59655;42.590;23.364;2022-10-19T02:35:53;4.93;;;2.63;;
71806;SDS011;59655;42.590;23.364;2022-10-19T02:38:20;6.97;;;2.47;;
71806;SDS011;59655;42.590;23.364;2022-10-19T02:43:20;5.00;;;2.28;;
71806;SDS011;59655;42.590;23.364;2022-10-19T02:45:59;5.53;;;2.20;;
71806;SDS011;59655;42.590;23.364;2022-10-19T02:48:28;6.40;;;2.40;;
71806;SDS011;59655;42.590;23.364;2022-10-19T02:50:57;7.40;;;2.78;;
71806;SDS011;59655;42.590;23.364;2022-10-19T02:53:22;5.82;;;2.28;;
71806;SDS011;59655;42.590;23.364;2022-10-19T02:55:48;7.95;;;2.83;;
71806;SDS011;59655;42.590;23.364;2022-10-19T02:58:14;4.55;;;2.25;;
71806;SDS011;59655;42.590;23.364;2022-10-19T03:00:40;4.35;;;2.15;;
71806;SDS011;59655;42.590;23.364;2022-10-19T03:03:05;6.53;;;2.60;;
71806;SDS011;59655;42.590;23.364;2022-10-19T03:05:30;4.38;;;2.63;;
71806;SDS011;59655;42.590;23.364;2022-10-19T03:07:56;7.65;;;2.63;;
71806;SDS011;59655;42.590;23.364;2022-10-19T03:10:21;4.80;;;2.33;;
71806;SDS011;59655;42.590;23.364;2022-10-19T03:12:46;5.72;;;2.40;;
71806;SDS011;59655;42.590;23.364;2022-10-19T03:15:15;6.22;;;2.78;;
71806;SDS011;59655;42.590;23.364;2022-10-19T03:17:41;8.38;;;3.50;;
71806;SDS011;59655;42.590;23.364;2022-10-19T03:20:07;9.48;;;3.30;;
71806;SDS011;59655;42.590;23.364;2022-10-19T03:22:33;7.22;;;2.70;;
71806;SDS011;59655;42.590;23.364;2022-10-19T03:24:59;7.50;;;3.00;;
71806;SDS011;59655;42.590;23.364;2022-10-19T03:27:24;6.85;;;3.25;;
71806;SDS011;59655;42.590;23.364;2022-10-19T03:29:49;7.70;;;3.13;;
71806;SDS011;59655;42.590;23.364;2022-10-19T03:32:15;8.80;;;4.57;;
71806;SDS011;59655;42.590;23.364;2022-10-19T03:34:40;9.07;;;4.07;;
71806;SDS011;59655;42.590;23.364;2022-10-19T03:37:06;7.95;;;2.83;;
71806;SDS011;59655;42.590;23.364;2022-10-19T03:39:32;6.95;;;3.10;;
71806;SDS011;59655;42.590;23.364;2022-10-19T03:41:58;9.25;;;3.90;;
71806;SDS011;59655;42.590;23.364;2022-10-19T03:44:24;7.88;;;3.40;;
71806;SDS011;59655;42.590;23.364;2022-10-19T03:46:49;9.13;;;3.40;;
71806;SDS011;59655;42.590;23.364;2022-10-19T03:49:15;10.25;;;4.10;;
71806;SDS011;59655;42.590;23.364;2022-10-19T03:51:40;9.20;;;4.10;;
71806;SDS011;59655;42.590;23.364;2022-10-19T03:54:07;9.40;;;3.80;;
71806;SDS011;59655;42.590;23.364;2022-10-19T03:56:35;8.35;;;3.67;;
71806;SDS011;59655;42.590;23.364;2022-10-19T03:59:01;7.40;;;3.83;;
71806;SDS011;59655;42.590;23.364;2022-10-19T04:01:31;9.65;;;3.40;;
71806;SDS011;59655;42.590;23.364;2022-10-19T04:04:02;13.00;;;4.03;;
71806;SDS011;59655;42.590;23.364;2022-10-19T04:06:30;11.95;;;4.15;;
71806;SDS011;59655;42.590;23.364;2022-10-19T04:08:57;9.55;;;4.68;;
71806;SDS011;59655;42.590;23.364;2022-10-19T04:11:25;9.93;;;3.90;;
71806;SDS011;59655;42.590;23.364;2022-10-19T04:13:52;11.90;;;4.43;;
71806;SDS011;59655;42.590;23.364;2022-10-19T04:16:19;8.30;;;3.70;;
71806;SDS011;59655;42.590;23.364;2022-10-19T04:18:45;10.38;;;3.05;;
71806;SDS011;59655;42.590;23.364;2022-10-19T04:21:28;15.35;;;3.63;;
71806;SDS011;59655;42.590;23.364;2022-10-19T04:23:56;6.55;;;3.22;;
71806;SDS011;59655;42.590;23.364;2022-10-19T04:26:30;12.30;;;5.85;;
71806;SDS011;59655;42.590;23.364;2022-10-19T04:28:57;8.32;;;3.75;;
71806;SDS011;59655;42.590;23.364;2022-10-19T04:31:24;9.43;;;2.65;;
71806;SDS011;59655;42.590;23.364;2022-10-19T04:33:50;9.90;;;2.92;;
71806;SDS011;59655;42.590;23.364;2022-10-19T04:36:15;10.10;;;3.15;;
71806;SDS011;59655;42.590;23.364;2022-10-19T04:38:40;15.43;;;3.00;;
71806;SDS011;59655;42.590;23.364;2022-10-19T04:41:11;10.70;;;3.20;;
71806;SDS011;59655;42.590;23.364;2022-10-19T04:43:38;13.38;;;4.43;;
71806;SDS011;59655;42.590;23.364;2022-10-19T04:46:04;14.45;;;4.65;;
71806;SDS011;59655;42.590;23.364;2022-10-19T04:48:32;13.25;;;4.72;;
71806;SDS011;59655;42.590;23.364;2022-10-19T04:50:59;7.10;;;3.72;;
71806;SDS011;59655;42.590;23.364;2022-10-19T04:53:25;13.63;;;6.68;;
71806;SDS011;59655;42.590;23.364;2022-10-19T04:55:50;13.43;;;4.13;;
71806;SDS011;59655;42.590;23.364;2022-10-19T04:58:16;9.10;;;3.70;;
71806;SDS011;59655;42.590;23.364;2022-10-19T05:00:41;7.88;;;3.13;;
71806;SDS011;59655;42.590;23.364;2022-10-19T05:03:07;6.53;;;2.70;;
71806;SDS011;59655;42.590;23.364;2022-10-19T05:05:32;7.90;;;4.05;;
71806;SDS011;59655;42.590;23.364;2022-10-19T05:07:58;10.68;;;3.95;;
71806;SDS011;59655;42.590;23.364;2022-10-19T05:10:24;9.05;;;3.75;;
71806;SDS011;59655;42.590;23.364;2022-10-19T05:12:49;16.75;;;4.43;;
71806;SDS011;59655;42.590;23.364;2022-10-19T05:15:15;11.82;;;4.93;;
71806;SDS011;59655;42.590;23.364;2022-10-19T05:17:40;17.65;;;6.78;;
71806;SDS011;59655;42.590;23.364;2022-10-19T05:20:05;11.80;;;5.60;;
71806;SDS011;59655;42.590;23.364;2022-10-19T05:22:31;21.27;;;5.93;;
71806;SDS011;59655;42.590;23.364;2022-10-19T05:24:57;15.15;;;5.18;;
71806;SDS011;59655;42.590;23.364;2022-10-19T05:27:22;14.98;;;4.85;;
71806;SDS011;59655;42.590;23.364;2022-10-19T05:29:47;13.55;;;5.78;;
71806;SDS011;59655;42.590;23.364;2022-10-19T05:32:13;13.90;;;5.53;;
71806;SDS011;59655;42.590;23.364;2022-10-19T05:34:38;12.02;;;5.72;;
71806;SDS011;59655;42.590;23.364;2022-10-19T05:37:04;16.42;;;7.68;;
71806;SDS011;59655;42.590;23.364;2022-10-19T05:39:29;16.48;;;6.38;;
71806;SDS011;59655;42.590;23.364;2022-10-19T05:41:54;17.17;;;6.72;;
71806;SDS011;59655;42.590;23.364;2022-10-19T05:44:20;15.57;;;6.70;;
71806;SDS011;59655;42.590;23.364;2022-10-19T05:46:48;12.73;;;7.32;;
71806;SDS011;59655;42.590;23.364;2022-10-19T05:49:14;13.32;;;7.05;;
71806;SDS011;59655;42.590;23.364;2022-10-19T05:51:41;14.15;;;5.93;;
71806;SDS011;59655;42.590;23.364;2022-10-19T05:54:07;11.75;;;4.35;;
71806;SDS011;59655;42.590;23.364;2022-10-19T05:56:34;12.55;;;4.20;;
71806;SDS011;59655;42.590;23.364;2022-10-19T05:59:01;10.00;;;4.00;;
71806;SDS011;59655;42.590;23.364;2022-10-19T06:03:55;11.98;;;4.90;;
71806;SDS011;59655;42.590;23.364;2022-10-19T06:06:21;10.90;;;4.18;;
71806;SDS011;59655;42.590;23.364;2022-10-19T06:08:48;11.07;;;4.88;;
71806;SDS011;59655;42.590;23.364;2022-10-19T06:11:14;11.15;;;3.53;;
71806;SDS011;59655;42.590;23.364;2022-10-19T06:13:42;9.43;;;4.20;;
71806;SDS011;59655;42.590;23.364;2022-10-19T06:16:10;8.10;;;3.33;;
71806;SDS011;59655;42.590;23.364;2022-10-19T06:18:37;9.13;;;3.70;;
71806;SDS011;59655;42.590;23.364;2022-10-19T06:21:04;12.13;;;4.20;;
71806;SDS011;59655;42.590;23.364;2022-10-19T06:26:07;10.50;;;4.22;;
71806;SDS011;59655;42.590;23.364;2022-10-19T06:28:36;8.90;;;4.10;;
71806;SDS011;59655;42.590;23.364;2022-10-19T06:31:02;10.40;;;4.05;;
71806;SDS011;59655;42.590;23.364;2022-10-19T06:33:28;10.20;;;3.92;;
71806;SDS011;59655;42.590;23.364;2022-10-19T06:36:13;8.18;;;4.30;;
71806;SDS011;59655;42.590;23.364;2022-10-19T06:38:40;10.95;;;4.50;;
71806;SDS011;59655;42.590;23.364;2022-10-19T06:41:06;9.77;;;4.22;;
71806;SDS011;59655;42.590;23.364;2022-10-19T06:43:32;7.82;;;4.40;;
71806;SDS011;59655;42.590;23.364;2022-10-19T06:45:58;7.90;;;4.20;;
71806;SDS011;59655;42.590;23.364;2022-10-19T06:48:29;9.90;;;4.15;;
71806;SDS011;59655;42.590;23.364;2022-10-19T06:50:58;10.38;;;4.47;;
71806;SDS011;59655;42.590;23.364;2022-10-19T06:53:24;8.30;;;3.92;;
71806;SDS011;59655;42.590;23.364;2022-10-19T06:55:51;9.93;;;3.90;;
71806;SDS011;59655;42.590;23.364;2022-10-19T06:58:16;10.07;;;4.97;;
71806;SDS011;59655;42.590;23.364;2022-10-19T07:00:42;8.38;;;4.30;;
71806;SDS011;59655;42.590;23.364;2022-10-19T07:03:07;12.80;;;4.45;;
71806;SDS011;59655;42.590;23.364;2022-10-19T07:05:32;10.95;;;4.30;;
71806;SDS011;59655;42.590;23.364;2022-10-19T07:07:58;11.18;;;3.72;;
71806;SDS011;59655;42.590;23.364;2022-10-19T07:10:23;9.73;;;4.03;;
71806;SDS011;59655;42.590;23.364;2022-10-19T07:12:48;10.35;;;3.72;;
71806;SDS011;59655;42.590;23.364;2022-10-19T07:15:14;12.75;;;4.82;;
71806;SDS011;59655;42.590;23.364;2022-10-19T07:17:39;11.50;;;4.57;;
71806;SDS011;59655;42.590;23.364;2022-10-19T07:20:05;10.25;;;4.70;;
71806;SDS011;59655;42.590;23.364;2022-10-19T07:22:30;9.07;;;4.47;;
71806;SDS011;59655;42.590;23.364;2022-10-19T07:24:56;12.60;;;4.00;;
71806;SDS011;59655;42.590;23.364;2022-10-19T07:27:22;7.47;;;3.72;;
71806;SDS011;59655;42.590;23.364;2022-10-19T07:29:48;10.00;;;4.63;;
71806;SDS011;59655;42.590;23.364;2022-10-19T07:32:13;9.88;;;4.47;;
71806;SDS011;59655;42.590;23.364;2022-10-19T07:34:39;6.95;;;3.83;;
71806;SDS011;59655;42.590;23.364;2022-10-19T07:37:04;16.08;;;4.57;;
71806;SDS011;59655;42.590;23.364;2022-10-19T07:39:29;12.32;;;4.50;;
71806;SDS011;59655;42.590;23.364;2022-10-19T07:41:55;13.13;;;4.78;;
71806;SDS011;59655;42.590;23.364;2022-10-19T07:44:20;13.23;;;4.93;;
71806;SDS011;59655;42.590;23.364;2022-10-19T07:46:46;12.02;;;5.10;;
71806;SDS011;59655;42.590;23.364;2022-10-19T07:49:14;14.90;;;5.30;;
71806;SDS011;59655;42.590;23.364;2022-10-19T07:51:43;13.80;;;5.90;;
71806;SDS011;59655;42.590;23.364;2022-10-19T07:54:09;13.65;;;6.00;;
71806;SDS011;59655;42.590;23.364;2022-10-19T07:56:34;15.38;;;6.30;;
71806;SDS011;59655;42.590;23.364;2022-10-19T07:59:00;15.00;;;6.50;;
71806;SDS011;59655;42.590;23.364;2022-10-19T08:01:31;12.18;;;5.82;;
71806;SDS011;59655;42.590;23.364;2022-10-19T08:03:59;17.88;;;6.70;;
71806;SDS011;59655;42.590;23.364;2022-10-19T08:06:25;14.63;;;6.00;;
71806;SDS011;59655;42.590;23.364;2022-10-19T08:08:51;15.55;;;6.53;;
71806;SDS011;59655;42.590;23.364;2022-10-19T08:11:19;15.05;;;6.75;;
71806;SDS011;59655;42.590;23.364;2022-10-19T08:13:45;16.13;;;6.32;;
71806;SDS011;59655;42.590;23.364;2022-10-19T08:16:29;11.18;;;5.60;;
71806;SDS011;59655;42.590;23.364;2022-10-19T08:19:02;13.02;;;5.97;;
71806;SDS011;59655;42.590;23.364;2022-10-19T08:21:31;15.15;;;5.65;;
71806;SDS011;59655;42.590;23.364;2022-10-19T08:23:57;15.40;;;6.97;;
71806;SDS011;59655;42.590;23.364;2022-10-19T08:26:22;13.43;;;6.00;;
71806;SDS011;59655;42.590;23.364;2022-10-19T08:28:48;12.90;;;6.47;;
71806;SDS011;59655;42.590;23.364;2022-10-19T08:31:18;17.17;;;8.13;;
71806;SDS011;59655;42.590;23.364;2022-10-19T08:33:44;15.70;;;6.72;;
71806;SDS011;59655;42.590;23.364;2022-10-19T08:36:11;17.83;;;7.90;;
71806;SDS011;59655;42.590;23.364;2022-10-19T08:38:37;16.45;;;7.10;;
71806;SDS011;59655;42.590;23.364;2022-10-19T08:41:18;14.63;;;7.07;;
71806;SDS011;59655;42.590;23.364;2022-10-19T08:49:19;15.50;;;7.95;;
71806;SDS011;59655;42.590;23.364;2022-10-19T08:52:03;14.43;;;8.20;;
71806;SDS011;59655;42.590;23.364;2022-10-19T08:54:40;17.23;;;8.25;;
71806;SDS011;59655;42.590;23.364;2022-10-19T09:06:16;22.15;;;9.48;;
71806;SDS011;59655;42.590;23.364;2022-10-19T09:09:01;17.23;;;9.45;;
71806;SDS011;59655;42.590;23.364;2022-10-19T09:11:30;23.25;;;9.35;;
71806;SDS011;59655;42.590;23.364;2022-10-19T09:14:04;19.33;;;9.73;;
71806;SDS011;59655;42.590;23.364;2022-10-19T09:16:37;20.90;;;8.52;;
71806;SDS011;59655;42.590;23.364;2022-10-19T09:19:08;18.02;;;7.90;;
71806;SDS011;59655;42.590;23.364;2022-10-19T09:22:30;16.75;;;8.15;;
71806;SDS011;59655;42.590;23.364;2022-10-19T09:24:42;22.00;;;8.18;;
71806;SDS011;59655;42.590;23.364;2022-10-19T09:27:21;19.80;;;7.82;;
71806;SDS011;59655;42.590;23.364;2022-10-19T09:29:55;14.05;;;6.57;;
71806;SDS011;59655;42.590;23.364;2022-10-19T09:32:27;11.48;;;5.80;;
71806;SDS011;59655;42.590;23.364;2022-10-19T09:34:57;11.52;;;5.22;;
71806;SDS011;59655;42.590;23.364;2022-10-19T09:37:26;8.38;;;4.35;;
71806;SDS011;59655;42.590;23.364;2022-10-19T09:39:53;12.27;;;4.95;;
71806;SDS011;59655;42.590;23.364;2022-10-19T09:42:27;9.18;;;4.07;;
71806;SDS011;59655;42.590;23.364;2022-10-19T09:44:57;11.60;;;3.83;;
71806;SDS011;59655;42.590;23.364;2022-10-19T09:47:28;10.45;;;4.78;;
71806;SDS011;59655;42.590;23.364;2022-10-19T09:50:40;7.63;;;3.83;;
71806;SDS011;59655;42.590;23.364;2022-10-19T09:55:19;8.38;;;3.83;;
71806;SDS011;59655;42.590;23.364;2022-10-19T09:57:56;8.95;;;3.60;;
71806;SDS011;59655;42.590;23.364;2022-10-19T10:00:30;9.10;;;4.00;;
71806;SDS011;59655;42.590;23.364;2022-10-19T10:02:57;7.47;;;3.35;;
71806;SDS011;59655;42.590;23.364;2022-10-19T10:05:30;10.40;;;3.75;;
71806;SDS011;59655;42.590;23.364;2022-10-19T10:07:58;8.68;;;3.55;;
71806;SDS011;59655;42.590;23.364;2022-10-19T10:10:24;7.20;;;3.40;;
71806;SDS011;59655;42.590;23.364;2022-10-19T10:12:52;7.38;;;3.65;;
71806;SDS011;59655;42.590;23.364;2022-10-19T10:15:23;8.73;;;3.88;;
71806;SDS011;59655;42.590;23.364;2022-10-19T10:17:50;6.85;;;3.88;;
71806;SDS011;59655;42.590;23.364;2022-10-19T10:22:55;6.68;;;3.42;;
71806;SDS011;59655;42.590;23.364;2022-10-19T10:25:28;8.93;;;3.35;;
71806;SDS011;59655;42.590;23.364;2022-10-19T10:28:17;8.43;;;3.83;;
71806;SDS011;59655;42.590;23.364;2022-10-19T10:30:43;8.10;;;3.50;;
71806;SDS011;59655;42.590;23.364;2022-10-19T10:33:14;6.50;;;3.10;;
71806;SDS011;59655;42.590;23.364;2022-10-19T10:35:41;5.82;;;3.38;;
71806;SDS011;59655;42.590;23.364;2022-10-19T10:38:15;7.32;;;3.50;;
71806;SDS011;59655;42.590;23.364;2022-10-19T10:40:48;9.15;;;3.05;;
71806;SDS011;59655;42.590;23.364;2022-10-19T10:43:15;6.05;;;2.88;;
71806;SDS011;59655;42.590;23.364;2022-10-19T10:45:45;10.75;;;3.72;;
71806;SDS011;59655;42.590;23.364;2022-10-19T10:48:24;7.00;;;3.70;;
71806;SDS011;59655;42.590;23.364;2022-10-19T10:50:55;8.30;;;2.92;;
71806;SDS011;59655;42.590;23.364;2022-10-19T10:53:33;7.28;;;2.83;;
71806;SDS011;59655;42.590;23.364;2022-10-19T10:56:00;7.20;;;3.38;;
71806;SDS011;59655;42.590;23.364;2022-10-19T11:01:02;7.50;;;3.15;;
71806;SDS011;59655;42.590;23.364;2022-10-19T11:03:31;8.63;;;3.00;;
71806;SDS011;59655;42.590;23.364;2022-10-19T11:05:59;7.50;;;3.00;;
71806;SDS011;59655;42.590;23.364;2022-10-19T11:11:16;5.78;;;2.75;;
71806;SDS011;59655;42.590;23.364;2022-10-19T11:13:52;6.78;;;2.90;;
71806;SDS011;59655;42.590;23.364;2022-10-19T11:16:31;7.15;;;2.97;;
71806;SDS011;59655;42.590;23.364;2022-10-19T11:19:14;5.75;;;3.13;;
71806;SDS011;59655;42.590;23.364;2022-10-19T11:21:43;9.48;;;2.85;;
71806;SDS011;59655;42.590;23.364;2022-10-19T11:56:53;9.00;;;2.58;;
71806;SDS011;59655;42.590;23.364;2022-10-19T11:59:28;8.02;;;2.47;;
71806;SDS011;59655;42.590;23.364;2022-10-19T12:02:02;3.88;;;2.55;;
71806;SDS011;59655;42.590;23.364;2022-10-19T12:04:55;5.28;;;2.70;;
71806;SDS011;59655;42.590;23.364;2022-10-19T12:07:31;4.53;;;2.28;;
71806;SDS011;59655;42.590;23.364;2022-10-19T12:12:50;7.25;;;2.63;;
71806;SDS011;59655;42.590;23.364;2022-10-19T12:15:22;7.57;;;2.95;;
71806;SDS011;59655;42.590;23.364;2022-10-19T12:17:54;5.60;;;2.70;;
71806;SDS011;59655;42.590;23.364;2022-10-19T12:22:55;4.53;;;2.50;;
71806;SDS011;59655;42.590;23.364;2022-10-19T12:25:23;5.18;;;2.58;;
71806;SDS011;59655;42.590;23.364;2022-10-19T12:27:49;5.55;;;2.90;;
71806;SDS011;59655;42.590;23.364;2022-10-19T12:30:19;6.68;;;3.20;;
71806;SDS011;59655;42.590;23.364;2022-10-19T12:33:05;7.30;;;2.67;;
71806;SDS011;59655;42.590;23.364;2022-10-19T12:36:30;4.65;;;2.90;;
71806;SDS011;59655;42.590;23.364;2022-10-19T12:41:47;5.38;;;2.75;;
71806;SDS011;59655;42.590;23.364;2022-10-19T12:47:09;5.93;;;2.83;;
71806;SDS011;59655;42.590;23.364;2022-10-19T12:52:16;8.25;;;2.97;;
71806;SDS011;59655;42.590;23.364;2022-10-19T12:55:09;8.10;;;2.88;;
71806;SDS011;59655;42.590;23.364;2022-10-19T12:57:41;5.82;;;2.97;;
71806;SDS011;59655;42.590;23.364;2022-10-19T13:00:22;5.22;;;2.95;;
71806;SDS011;59655;42.590;23.364;2022-10-19T13:02:55;5.68;;;2.83;;
71806;SDS011;59655;42.590;23.364;2022-10-19T13:05:25;6.20;;;2.88;;
71806;SDS011;59655;42.590;23.364;2022-10-19T13:10:21;7.40;;;3.10;;
71806;SDS011;59655;42.590;23.364;2022-10-19T13:12:48;6.85;;;3.50;;
71806;SDS011;59655;42.590;23.364;2022-10-19T13:17:58;5.30;;;2.92;;
71806;SDS011;59655;42.590;23.364;2022-10-19T13:25:38;5.90;;;3.17;;
71806;SDS011;59655;42.590;23.364;2022-10-19T13:41:26;5.05;;;2.90;;
71806;SDS011;59655;42.590;23.364;2022-10-19T14:00:20;7.53;;;2.80;;
71806;SDS011;59655;42.590;23.364;2022-10-19T14:03:13;4.55;;;2.30;;
71806;SDS011;59655;42.590;23.364;2022-10-19T14:05:55;3.47;;;1.80;;
71806;SDS011;59655;42.590;23.364;2022-10-19T14:11:25;6.47;;;2.42;;
71806;SDS011;59655;42.590;23.364;2022-10-19T14:19:13;4.25;;;2.38;;
71806;SDS011;59655;42.590;23.364;2022-10-19T14:21:50;6.07;;;2.13;;
71806;SDS011;59655;42.590;23.364;2022-10-19T14:24:20;6.03;;;2.20;;
71806;SDS011;59655;42.590;23.364;2022-10-19T14:26:51;6.70;;;2.65;;
71806;SDS011;59655;42.590;23.364;2022-10-19T14:29:18;3.55;;;1.90;;
71806;SDS011;59655;42.590;23.364;2022-10-19T14:31:43;8.00;;;2.42;;
71806;SDS011;59655;42.590;23.364;2022-10-19T14:34:09;9.27;;;3.30;;
71806;SDS011;59655;42.590;23.364;2022-10-19T14:36:38;4.70;;;3.30;;
71806;SDS011;59655;42.590;23.364;2022-10-19T14:39:20;4.50;;;3.30;;
71806;SDS011;59655;42.590;23.364;2022-10-19T14:42:01;6.32;;;3.53;;
71806;SDS011;59655;42.590;23.364;2022-10-19T14:44:36;10.23;;;3.63;;
71806;SDS011;59655;42.590;23.364;2022-10-19T14:47:23;4.93;;;3.45;;
71806;SDS011;59655;42.590;23.364;2022-10-19T14:49:51;10.40;;;4.10;;
71806;SDS011;59655;42.590;23.364;2022-10-19T14:52:23;7.28;;;3.78;;
71806;SDS011;59655;42.590;23.364;2022-10-19T14:54:53;5.82;;;3.25;;
71806;SDS011;59655;42.590;23.364;2022-10-19T14:57:28;8.95;;;3.90;;
71806;SDS011;59655;42.590;23.364;2022-10-19T14:59:59;7.20;;;3.83;;
71806;SDS011;59655;42.590;23.364;2022-10-19T15:02:47;7.30;;;3.50;;
71806;SDS011;59655;42.590;23.364;2022-10-19T15:07:45;6.53;;;4.00;;
71806;SDS011;59655;42.590;23.364;2022-10-19T15:10:19;10.98;;;4.38;;
71806;SDS011;59655;42.590;23.364;2022-10-19T15:12:45;7.43;;;4.07;;
71806;SDS011;59655;42.590;23.364;2022-10-19T15:15:24;8.70;;;3.97;;
71806;SDS011;59655;42.590;23.364;2022-10-19T15:20:33;7.50;;;4.22;;
71806;SDS011;59655;42.590;23.364;2022-10-19T15:23:01;10.00;;;4.30;;
71806;SDS011;59655;42.590;23.364;2022-10-19T15:28:35;6.40;;;4.05;;
71806;SDS011;59655;42.590;23.364;2022-10-19T15:31:06;9.63;;;4.68;;
71806;SDS011;59655;42.590;23.364;2022-10-19T15:33:45;9.57;;;4.90;;
71806;SDS011;59655;42.590;23.364;2022-10-19T15:36:14;28.60;;;11.13;;
71806;SDS011;59655;42.590;23.364;2022-10-19T15:38:46;17.50;;;7.15;;
71806;SDS011;59655;42.590;23.364;2022-10-19T15:41:23;14.38;;;6.38;;
71806;SDS011;59655;42.590;23.364;2022-10-19T15:43:55;16.92;;;7.68;;
71806;SDS011;59655;42.590;23.364;2022-10-19T15:48:59;7.35;;;4.80;;
71806;SDS011;59655;42.590;23.364;2022-10-19T15:51:31;9.45;;;4.93;;
71806;SDS011;59655;42.590;23.364;2022-10-19T15:54:03;14.05;;;5.50;;
71806;SDS011;59655;42.590;23.364;2022-10-19T15:56:31;7.95;;;5.07;;
71806;SDS011;59655;42.590;23.364;2022-10-19T15:58:59;12.55;;;5.20;;
71806;SDS011;59655;42.590;23.364;2022-10-19T16:01:27;11.75;;;5.22;;
71806;SDS011;59655;42.590;23.364;2022-10-19T16:03:55;9.38;;;5.40;;
71806;SDS011;59655;42.590;23.364;2022-10-19T16:06:24;8.25;;;4.85;;
71806;SDS011;59655;42.590;23.364;2022-10-19T16:08:51;12.02;;;6.05;;
71806;SDS011;59655;42.590;23.364;2022-10-19T16:11:18;8.38;;;5.40;;
71806;SDS011;59655;42.590;23.364;2022-10-19T16:13:45;10.20;;;5.68;;
71806;SDS011;59655;42.590;23.364;2022-10-19T16:16:20;8.48;;;5.78;;
71806;SDS011;59655;42.590;23.364;2022-10-19T16:18:47;12.00;;;5.93;;
71806;SDS011;59655;42.590;23.364;2022-10-19T16:21:13;11.27;;;6.28;;
71806;SDS011;59655;42.590;23.364;2022-10-19T16:23:39;10.07;;;6.28;;
71806;SDS011;59655;42.590;23.364;2022-10-19T16:26:05;12.40;;;7.07;;
71806;SDS011;59655;42.590;23.364;2022-10-19T16:28:31;21.20;;;8.07;;
71806;SDS011;59655;42.590;23.364;2022-10-19T16:30:56;13.35;;;7.68;;
71806;SDS011;59655;42.590;23.364;2022-10-19T16:33:22;21.98;;;8.10;;
71806;SDS011;59655;42.590;23.364;2022-10-19T16:35:47;14.88;;;8.32;;
71806;SDS011;59655;42.590;23.364;2022-10-19T16:38:13;12.25;;;6.97;;
71806;SDS011;59655;42.590;23.364;2022-10-19T16:40:40;15.60;;;7.70;;
71806;SDS011;59655;42.590;23.364;2022-10-19T16:43:05;16.30;;;7.65;;
71806;SDS011;59655;42.590;23.364;2022-10-19T16:45:30;13.40;;;7.65;;
71806;SDS011;59655;42.590;23.364;2022-10-19T16:47:56;11.50;;;7.50;;
71806;SDS011;59655;42.590;23.364;2022-10-19T16:50:22;13.90;;;7.40;;
71806;SDS011;59655;42.590;23.364;2022-10-19T16:52:53;11.65;;;7.70;;
71806;SDS011;59655;42.590;23.364;2022-10-19T16:55:28;11.02;;;7.82;;
71806;SDS011;59655;42.590;23.364;2022-10-19T16:57:54;15.63;;;8.00;;
71806;SDS011;59655;42.590;23.364;2022-10-19T17:00:20;12.82;;;7.57;;
71806;SDS011;59655;42.590;23.364;2022-10-19T17:02:45;15.50;;;8.18;;
71806;SDS011;59655;42.590;23.364;2022-10-19T17:05:11;13.00;;;7.72;;
71806;SDS011;59655;42.590;23.364;2022-10-19T17:07:36;13.23;;;8.57;;
71806;SDS011;59655;42.590;23.364;2022-10-19T17:10:02;15.18;;;7.63;;
71806;SDS011;59655;42.590;23.364;2022-10-19T17:12:27;16.73;;;7.90;;
71806;SDS011;59655;42.590;23.364;2022-10-19T17:14:52;12.40;;;8.38;;
71806;SDS011;59655;42.590;23.364;2022-10-19T17:17:18;14.05;;;7.90;;
71806;SDS011;59655;42.590;23.364;2022-10-19T17:19:43;12.55;;;7.72;;
71806;SDS011;59655;42.590;23.364;2022-10-19T17:22:08;14.70;;;7.88;;